Time,TemperatureF,DewpointF,PressureIn,WindDirection,WindDirectionDegrees,WindSpeedMPH,WindSpeedGustMPH,Humidity,HourlyPrecipIn,Conditions,Clouds,dailyrainin,SoftwareType,DateUTC
2013-03-25 00:01:00,33.1,32.0,29.78,NW,323,0.0,-999.0,94,-99.99,,,0.74,weatherlink.com 1.10,2013-03-25 04:01:00,
2013-03-25 00:31:00,33.0,32.0,29.77,NW,323,0.0,-999.0,94,-99.99,,,0.74,weatherlink.com 1.10,2013-03-25 04:31:00,
2013-03-25 00:46:00,32.9,31.0,29.76,NW,323,0.0,-999.0,94,-99.99,,,0.74,weatherlink.com 1.10,2013-03-25 04:46:00,
2013-03-25 01:16:00,32.8,31.0,29.75,NW,323,0.0,-999.0,94,-99.99,,,0.74,weatherlink.com 1.10,2013-03-25 05:16:00,
2013-03-25 01:31:00,32.7,31.0,29.74,NW,323,0.0,-999.0,94,-99.99,,,0.74,weatherlink.com 1.10,2013-03-25 05:31:00,
2013-03-25 01:46:00,32.7,31.0,29.75,NW,323,0.0,-999.0,94,-99.99,,,0.00,weatherlink.com 1.10,2013-03-25 05:46:00,
2013-03-25 02:01:00,32.6,31.0,29.74,NW,323,0.0,-999.0,95,-99.99,,,0.00,weatherlink.com 1.10,2013-03-25 06:01:00,
2013-03-25 02:16:00,32.6,31.0,29.75,NW,323,0.0,-999.0,95,-99.99,,,0.00,weatherlink.com 1.10,2013-03-25 06:16:00,
2013-03-25 02:31:00,32.6,31.0,29.76,NW,323,0.0,-999.0,95,-99.99,,,0.00,weatherlink.com 1.10,2013-03-25 06:31:00,
2013-03-25 02:46:00,32.7,32.0,29.75,NW,323,0.0,-999.0,95,-99.99,,,0.00,weatherlink.com 1.10,2013-03-25 06:46:00,
2013-03-25 03:01:00,32.7,32.0,29.75,NW,323,0.0,-999.0,95,-99.99,,,0.00,weatherlink.com 1.10,2013-03-25 07:01:00,
2013-03-25 03:16:00,32.7,32.0,29.75,NW,323,0.0,-999.0,95,-99.99,,,0.00,weatherlink.com 1.10,2013-03-25 07:16:00,
2013-03-25 03:31:00,32.8,32.0,29.74,NW,323,0.0,-999.0,95,-99.99,,,0.00,weatherlink.com 1.10,2013-03-25 07:31:00,
2013-03-25 03:46:00,32.8,32.0,29.74,NW,323,0.0,-999.0,95,-99.99,,,0.00,weatherlink.com 1.10,2013-03-25 07:46:00,
2013-03-25 04:01:00,32.7,32.0,29.73,NW,323,0.0,-999.0,95,-99.99,,,0.00,weatherlink.com 1.10,2013-03-25 08:01:00,
2013-03-25 04:17:00,32.7,32.0,29.73,NW,323,0.0,-999.0,95,-99.99,,,0.00,weatherlink.com 1.10,2013-03-25 08:17:00,
2013-03-25 04:32:00,32.7,32.0,29.73,NW,323,0.0,-999.0,95,-99.99,,,0.00,weatherlink.com 1.10,2013-03-25 08:32:00,
2013-03-25 04:47:00,32.7,32.0,29.72,NW,323,0.0,-999.0,95,-99.99,,,0.00,weatherlink.com 1.10,2013-03-25 08:47:00,
2013-03-25 05:01:00,32.7,32.0,29.72,NW,323,0.0,-999.0,95,-99.99,,,0.00,weatherlink.com 1.10,2013-03-25 09:01:00,
2013-03-25 05:17:00,32.8,32.0,29.72,NW,323,0.0,-999.0,95,-99.99,,,0.00,weatherlink.com 1.10,2013-03-25 09:17:00,
2013-03-25 05:32:00,32.8,32.0,29.72,NW,323,0.0,-999.0,95,-99.99,,,0.00,weatherlink.com 1.10,2013-03-25 09:32:00,
2013-03-25 05:47:00,32.8,32.0,29.72,NW,323,0.0,-999.0,95,-99.99,,,0.00,weatherlink.com 1.10,2013-03-25 09:47:00,
2013-03-25 06:02:00,32.9,32.0,29.73,NW,323,0.0,-999.0,95,-99.99,,,0.00,weatherlink.com 1.10,2013-03-25 10:02:00,
2013-03-25 06:17:00,32.9,32.0,29.73,NW,323,0.0,-999.0,95,-99.99,,,0.00,weatherlink.com 1.10,2013-03-25 10:17:00,
2013-03-25 06:32:00,32.9,32.0,29.73,NW,323,0.0,-999.0,95,-99.99,,,0.00,weatherlink.com 1.10,2013-03-25 10:32:00,
2013-03-25 06:47:00,33.0,32.0,29.73,NW,323,0.0,-999.0,95,-99.99,,,0.00,weatherlink.com 1.10,2013-03-25 10:47:00,
2013-03-25 07:02:00,33.0,32.0,29.72,NW,323,0.0,-999.0,95,-99.99,,,0.00,weatherlink.com 1.10,2013-03-25 11:02:00,
2013-03-25 07:17:00,33.1,32.0,29.73,NW,323,0.0,-999.0,95,-99.99,,,0.00,weatherlink.com 1.10,2013-03-25 11:17:00,
2013-03-25 07:32:00,33.0,32.0,29.73,NW,323,0.0,-999.0,95,-99.99,,,0.00,weatherlink.com 1.10,2013-03-25 11:32:00,
2013-03-25 07:47:00,33.0,32.0,29.73,South,173,2.0,-999.0,95,-99.99,,,0.00,weatherlink.com 1.10,2013-03-25 11:47:00,
2013-03-25 08:02:00,33.1,32.0,29.74,NE,38,0.0,-999.0,96,-99.99,,,0.00,weatherlink.com 1.10,2013-03-25 12:02:00,
2013-03-25 08:17:00,33.3,32.0,29.75,NE,38,0.0,-999.0,96,-99.99,,,0.00,weatherlink.com 1.10,2013-03-25 12:17:00,
2013-03-25 08:32:00,33.5,32.0,29.75,SE,141,1.0,-999.0,95,-99.99,,,0.00,weatherlink.com 1.10,2013-03-25 12:32:00,
2013-03-25 08:47:00,33.6,32.0,29.76,South,184,0.0,-999.0,95,-99.99,,,0.00,weatherlink.com 1.10,2013-03-25 12:47:00,
2013-03-25 09:02:00,34.1,33.0,29.76,South,171,0.0,-999.0,96,-99.99,,,0.00,weatherlink.com 1.10,2013-03-25 13:02:00,
2013-03-25 09:17:00,34.9,34.0,29.75,South,171,0.0,-999.0,95,-99.99,,,0.00,weatherlink.com 1.10,2013-03-25 13:17:00,
2013-03-25 09:32:00,36.8,32.0,29.76,SE,140,0.0,-999.0,84,-99.99,,,0.02,weatherlink.com 1.10,2013-03-25 13:32:00,
2013-03-25 09:47:00,37.4,32.0,29.75,South,182,0.0,-999.0,81,-99.99,,,0.02,weatherlink.com 1.10,2013-03-25 13:47:00,
2013-03-25 10:02:00,37.8,32.0,29.76,East,96,6.0,-999.0,78,-99.99,,,0.03,weatherlink.com 1.10,2013-03-25 14:02:00,
2013-03-25 10:17:00,39.1,32.0,29.76,West,272,0.0,-999.0,76,-99.99,,,0.03,weatherlink.com 1.10,2013-03-25 14:17:00,
2013-03-25 10:32:00,39.5,29.0,29.77,WSW,240,3.0,-999.0,66,-99.99,,,0.04,weatherlink.com 1.10,2013-03-25 14:32:00,
2013-03-25 10:47:00,39.3,29.0,29.77,NW,321,1.0,-999.0,67,-99.99,,,0.04,weatherlink.com 1.10,2013-03-25 14:47:00,
2013-03-25 11:02:00,39.3,28.0,29.77,West,273,4.0,-999.0,65,-99.99,,,0.04,weatherlink.com 1.10,2013-03-25 15:02:00,
2013-03-25 11:17:00,40.3,28.0,29.77,NNW,340,9.0,-999.0,61,-99.99,,,0.04,weatherlink.com 1.10,2013-03-25 15:17:00,
2013-03-25 11:32:00,40.3,27.0,29.78,NW,314,13.0,-999.0,60,-99.99,,,0.04,weatherlink.com 1.10,2013-03-25 15:32:00,
2013-03-25 11:47:00,40.3,27.0,29.79,NNW,338,6.0,-999.0,60,-99.99,,,0.04,weatherlink.com 1.10,2013-03-25 15:47:00,
2013-03-25 12:17:00,40.1,26.0,29.80,WNW,302,9.0,-999.0,57,-99.99,,,0.04,weatherlink.com 1.10,2013-03-25 16:17:00,
2013-03-25 12:32:00,40.6,27.0,29.81,NNW,341,13.0,-999.0,59,-99.99,,,0.04,weatherlink.com 1.10,2013-03-25 16:32:00,
2013-03-25 12:47:00,40.2,26.0,29.81,NNW,343,2.0,-999.0,58,-99.99,,,0.04,weatherlink.com 1.10,2013-03-25 16:47:00,
2013-03-25 13:02:00,40.6,27.0,29.81,NNE,12,11.0,-999.0,58,-99.99,,,0.04,weatherlink.com 1.10,2013-03-25 17:02:00,
2013-03-25 13:17:00,41.4,29.0,29.81,NNW,338,16.0,-999.0,61,-99.99,,,0.04,weatherlink.com 1.10,2013-03-25 17:17:00,
2013-03-25 13:32:00,41.3,25.0,29.81,West,268,0.0,-999.0,52,-99.99,,,0.04,weatherlink.com 1.10,2013-03-25 17:32:00,
2013-03-25 13:48:00,40.9,25.0,29.81,SSW,207,4.0,-999.0,54,-99.99,,,0.04,weatherlink.com 1.10,2013-03-25 17:48:00,
2013-03-25 14:03:00,41.2,24.0,29.81,WNW,301,4.0,-999.0,51,-99.99,,,0.04,weatherlink.com 1.10,2013-03-25 18:03:00,
2013-03-25 14:18:00,42.4,25.0,29.80,SSE,165,5.0,-999.0,51,-99.99,,,0.04,weatherlink.com 1.10,2013-03-25 18:18:00,
2013-03-25 14:33:00,41.4,25.0,29.81,West,275,13.0,-999.0,52,-99.99,,,0.04,weatherlink.com 1.10,2013-03-25 18:33:00,
2013-03-25 14:48:00,41.9,27.0,29.80,NW,305,6.0,-999.0,55,-99.99,,,0.04,weatherlink.com 1.10,2013-03-25 18:48:00,
2013-03-25 15:03:00,41.6,25.0,29.82,NNW,329,14.0,-999.0,53,-99.99,,,0.04,weatherlink.com 1.10,2013-03-25 19:03:00,
2013-03-25 15:18:00,41.0,27.0,29.81,North,351,8.0,-999.0,59,-99.99,,,0.04,weatherlink.com 1.10,2013-03-25 19:18:00,
2013-03-25 15:33:00,42.0,25.0,29.81,NNW,341,7.0,-999.0,52,-99.99,,,0.04,weatherlink.com 1.10,2013-03-25 19:33:00,
2013-03-25 15:48:00,42.6,27.0,29.81,NW,324,5.0,-999.0,54,-99.99,,,0.04,weatherlink.com 1.10,2013-03-25 19:48:00,
2013-03-25 16:03:00,43.0,26.0,29.81,West,267,3.0,-999.0,51,-99.99,,,0.04,weatherlink.com 1.10,2013-03-25 20:03:00,
2013-03-25 16:18:00,42.3,26.0,29.82,ENE,70,5.0,-999.0,52,-99.99,,,0.04,weatherlink.com 1.10,2013-03-25 20:18:00,
2013-03-25 16:33:00,42.7,26.0,29.83,ENE,63,1.0,-999.0,51,-99.99,,,0.04,weatherlink.com 1.10,2013-03-25 20:33:00,
2013-03-25 16:48:00,41.5,24.0,29.83,NNW,337,8.0,-999.0,50,-99.99,,,0.04,weatherlink.com 1.10,2013-03-25 20:48:00,
2013-03-25 17:03:00,40.7,25.0,29.84,West,271,5.0,-999.0,55,-99.99,,,0.04,weatherlink.com 1.10,2013-03-25 21:03:00,
2013-03-25 17:18:00,41.0,24.0,29.84,SSW,193,5.0,-999.0,52,-99.99,,,0.04,weatherlink.com 1.10,2013-03-25 21:18:00,
2013-03-25 17:33:00,40.4,23.0,29.86,NW,308,12.0,-999.0,50,-99.99,,,0.04,weatherlink.com 1.10,2013-03-25 21:33:00,
2013-03-25 17:48:00,40.3,23.0,29.86,NNE,12,5.0,-999.0,51,-99.99,,,0.04,weatherlink.com 1.10,2013-03-25 21:48:00,
2013-03-25 18:03:00,40.3,24.0,29.86,West,272,5.0,-999.0,53,-99.99,,,0.04,weatherlink.com 1.10,2013-03-25 22:03:00,
2013-03-25 18:18:00,40.7,26.0,29.88,West,280,2.0,-999.0,56,-99.99,,,0.04,weatherlink.com 1.10,2013-03-25 22:18:00,
2013-03-25 18:33:00,40.2,25.0,29.88,North,350,4.0,-999.0,55,-99.99,,,0.04,weatherlink.com 1.10,2013-03-25 22:33:00,
2013-03-25 18:48:00,39.8,24.0,29.89,West,274,4.0,-999.0,54,-99.99,,,0.04,weatherlink.com 1.10,2013-03-25 22:48:00,
2013-03-25 19:03:00,39.3,24.0,29.89,NW,311,8.0,-999.0,54,-99.99,,,0.04,weatherlink.com 1.10,2013-03-25 23:03:00,
2013-03-25 19:18:00,38.4,26.0,29.91,NW,317,2.0,-999.0,61,-99.99,,,0.04,weatherlink.com 1.10,2013-03-25 23:18:00,
2013-03-25 19:33:00,37.7,26.0,29.92,NNW,347,5.0,-999.0,62,-99.99,,,0.04,weatherlink.com 1.10,2013-03-25 23:33:00,
2013-03-25 19:48:00,37.3,24.0,29.93,NNW,333,4.0,-999.0,60,-99.99,,,0.04,weatherlink.com 1.10,2013-03-25 23:48:00,
2013-03-25 20:03:00,36.8,26.0,29.93,NW,307,0.0,-999.0,64,-99.99,,,0.04,weatherlink.com 1.10,2013-03-26 00:03:00,
2013-03-25 20:18:00,36.1,25.0,29.95,NW,325,6.0,-999.0,64,-99.99,,,0.04,weatherlink.com 1.10,2013-03-26 00:18:00,
2013-03-25 20:33:00,35.7,28.0,29.96,NNW,336,7.0,-999.0,74,-99.99,,,0.04,weatherlink.com 1.10,2013-03-26 00:33:00,
2013-03-25 20:48:00,35.1,27.0,29.96,SW,232,2.0,-999.0,72,-99.99,,,0.04,weatherlink.com 1.10,2013-03-26 00:48:00,
2013-03-25 21:03:00,34.7,27.0,29.96,NW,310,0.0,-999.0,72,-99.99,,,0.04,weatherlink.com 1.10,2013-03-26 01:03:00,
2013-03-25 21:18:00,34.4,25.0,29.97,NW,315,2.0,-999.0,69,-99.99,,,0.04,weatherlink.com 1.10,2013-03-26 01:18:00,
2013-03-25 21:33:00,34.9,27.0,29.97,NNW,347,4.0,-999.0,72,-99.99,,,0.04,weatherlink.com 1.10,2013-03-26 01:33:00,
2013-03-25 21:48:00,34.4,26.0,29.97,NNW,342,2.0,-999.0,70,-99.99,,,0.04,weatherlink.com 1.10,2013-03-26 01:48:00,
2013-03-25 22:03:00,34.3,26.0,29.98,North,355,0.0,-999.0,72,-99.99,,,0.04,weatherlink.com 1.10,2013-03-26 02:03:00,
2013-03-25 22:18:00,33.9,24.0,29.98,NNW,344,2.0,-999.0,66,-99.99,,,0.04,weatherlink.com 1.10,2013-03-26 02:18:00,
2013-03-25 22:33:00,35.0,24.0,29.99,NNW,340,5.0,-999.0,64,-99.99,,,0.04,weatherlink.com 1.10,2013-03-26 02:33:00,
2013-03-25 22:48:00,35.7,24.0,29.99,West,267,0.0,-999.0,63,-99.99,,,0.04,weatherlink.com 1.10,2013-03-26 02:48:00,
2013-03-25 23:03:00,35.6,25.0,29.99,NNW,332,0.0,-999.0,66,-99.99,,,0.04,weatherlink.com 1.10,2013-03-26 03:03:00,
2013-03-25 23:18:00,35.1,24.0,29.99,NW,326,6.0,-999.0,64,-99.99,,,0.04,weatherlink.com 1.10,2013-03-26 03:18:00,
2013-03-25 23:33:00,35.2,24.0,30.00,NNW,331,2.0,-999.0,64,-99.99,,,0.04,weatherlink.com 1.10,2013-03-26 03:33:00,
2013-03-25 23:48:00,35.2,24.0,30.00,NNW,345,11.0,-999.0,65,-99.99,,,0.04,weatherlink.com 1.10,2013-03-26 03:48:00,